Time;durP1;ratioP1;P1;durP2;ratioP2;P2;SDS_P1;SDS_P2;PMS_P1;PMS_P2;Temp;Humidity;BMP_temperature;BMP_pressure;BME280_temperature;BME280_humidity;BME280_pressure;Samples;Min_cycle;Max_cycle;Signal;HPM_P1;HPM_P2
2023/07/07 00:01:02;;;;;;;;;;;23.90;49.70;;;;;;5065677;28;19912;-92
2023/07/07 00:03:28;;;;;;;;;;;23.90;49.70;;;;;;5070837;28;19908;-92
2023/07/07 00:05:54;;;;;;;;;;;23.90;49.70;;;;;;5076467;28;19912;-92
2023/07/07 00:08:19;;;;;;;;;;;23.90;49.70;;;;;;5089000;28;20013;-92
2023/07/07 00:10:45;;;;;;;;;;;23.80;49.70;;;;;;5069504;28;20033;-91
2023/07/07 00:13:11;;;;;;;;;;;23.80;49.70;;;;;;5068429;28;19923;-91
2023/07/07 00:15:37;;;;;;;;;;;23.80;49.70;;;;;;5075081;28;19912;-92
2023/07/07 00:18:03;;;;;;;;;;;23.80;49.70;;;;;;5069852;28;19908;-92
2023/07/07 00:20:31;;;;;;;;;;;23.80;49.70;;;;;;5067351;28;20205;-92
2023/07/07 00:22:58;;;;;;;;;;;23.80;49.70;;;;;;5068266;28;19912;-92
2023/07/07 00:25:24;;;;;;;;;;;23.70;49.60;;;;;;5067017;28;19973;-92
2023/07/07 00:27:49;;;;;;;;;;;23.70;49.70;;;;;;5063272;28;20072;-92
2023/07/07 00:30:15;;;;;;;;;;;23.70;49.60;;;;;;5072813;28;20345;-92
2023/07/07 00:32:41;;;;;;;;;;;23.70;49.70;;;;;;5067324;28;19923;-92
2023/07/07 00:35:07;;;;;;;;;;;23.70;49.70;;;;;;5080697;28;20194;-92
2023/07/07 00:37:33;;;;;;;;;;;23.70;49.70;;;;;;5083658;28;19919;-92
2023/07/07 00:39:59;;;;;;;;;;;23.70;49.70;;;;;;5085007;28;19912;-92
2023/07/07 00:42:25;;;;;;;;;;;23.60;49.60;;;;;;5082395;28;19925;-91
2023/07/07 00:45:12;;;;;;;;;;;23.60;49.60;;;;;;5086874;28;20089;-92
2023/07/07 00:47:40;;;;;;;;;;;23.60;49.70;;;;;;5081021;28;19999;-92
2023/07/07 00:50:07;;;;;;;;;;;23.60;49.60;;;;;;5089208;28;19912;-92
2023/07/07 00:52:33;;;;;;;;;;;23.60;49.60;;;;;;5082600;28;19908;-92
2023/07/07 00:54:59;;;;;;;;;;;23.60;49.70;;;;;;5090773;28;19916;-92
2023/07/07 00:57:25;;;;;;;;;;;23.60;49.70;;;;;;5083786;28;19914;-92
2023/07/07 00:59:51;;;;;;;;;;;23.60;49.60;;;;;;5085167;28;19942;-92
2023/07/07 01:02:24;;;;;;;;;;;23.50;49.60;;;;;;5090435;28;19962;-92
2023/07/07 01:04:51;;;;;;;;;;;23.50;49.60;;;;;;5085560;28;19931;-92
2023/07/07 01:07:29;;;;;;;;;;;23.50;49.60;;;;;;5084021;28;19951;-92
2023/07/07 01:09:55;;;;;;;;;;;23.50;49.60;;;;;;5084103;28;19921;-92
2023/07/07 01:12:21;;;;;;;;;;;23.50;49.60;;;;;;5084472;28;19908;-92
2023/07/07 01:14:47;;;;;;;;;;;23.50;49.60;;;;;;5084649;28;20233;-92
2023/07/07 01:17:18;;;;;;;;;;;23.40;49.60;;;;;;5086260;28;20178;-92
2023/07/07 01:19:45;;;;;;;;;;;23.40;49.60;;;;;;5085356;28;20248;-92
2023/07/07 01:22:20;;;;;;;;;;;23.40;49.60;;;;;;5079908;28;20140;-92
2023/07/07 01:25:05;;;;;;;;;;;23.40;49.60;;;;;;5085604;28;19920;-92
2023/07/07 01:27:42;;;;;;;;;;;23.40;49.60;;;;;;5082604;28;19961;-92
2023/07/07 01:30:17;;;;;;;;;;;23.40;49.60;;;;;;5082078;28;19909;-92
2023/07/07 01:32:43;;;;;;;;;;;23.40;49.70;;;;;;5085151;28;20178;-92
2023/07/07 01:35:13;;;;;;;;;;;23.30;49.60;;;;;;5082790;28;19919;-92
2023/07/07 01:37:59;;;;;;;;;;;23.30;49.60;;;;;;5082830;28;19931;-92
2023/07/07 01:40:47;;;;;;;;;;;23.30;49.60;;;;;;5078911;28;19908;-92
2023/07/07 01:43:17;;;;;;;;;;;23.30;49.60;;;;;;5078575;28;20036;-92
2023/07/07 01:45:50;;;;;;;;;;;23.30;49.70;;;;;;5085765;28;19908;-92
2023/07/07 01:48:19;;;;;;;;;;;23.30;49.70;;;;;;5080329;28;19919;-92
2023/07/07 01:50:46;;;;;;;;;;;23.30;49.70;;;;;;5079957;28;19912;-92
2023/07/07 01:53:15;;;;;;;;;;;23.30;49.70;;;;;;5079750;28;19916;-92
2023/07/07 01:55:44;;;;;;;;;;;23.30;49.70;;;;;;5083395;28;20167;-92
2023/07/07 01:58:11;;;;;;;;;;;23.20;49.60;;;;;;5086022;28;19919;-92
2023/07/07 02:00:37;;;;;;;;;;;23.20;49.60;;;;;;5082971;28;19931;-92
2023/07/07 02:03:07;;;;;;;;;;;23.20;49.70;;;;;;5086218;28;19966;-92
2023/07/07 02:05:33;;;;;;;;;;;23.20;49.70;;;;;;5081733;28;19958;-92
2023/07/07 02:07:59;;;;;;;;;;;23.20;50.10;;;;;;5086030;28;20051;-92
2023/07/07 02:10:25;;;;;;;;;;;23.20;49.70;;;;;;5088726;28;20267;-92
2023/07/07 02:12:50;;;;;;;;;;;23.10;49.70;;;;;;5092085;28;19919;-92
2023/07/07 02:15:16;;;;;;;;;;;23.10;50.00;;;;;;5087135;28;19943;-92
2023/07/07 02:17:42;;;;;;;;;;;23.10;49.70;;;;;;5093587;28;19908;-92
2023/07/07 02:20:09;;;;;;;;;;;23.10;49.70;;;;;;5089372;28;19989;-92
2023/07/07 02:22:36;;;;;;;;;;;23.10;49.70;;;;;;5091464;28;19912;-92
2023/07/07 02:25:01;;;;;;;;;;;23.10;49.70;;;;;;5097241;28;20035;-92
2023/07/07 02:27:27;;;;;;;;;;;23.10;49.70;;;;;;5091010;28;19909;-92
2023/07/07 02:29:53;;;;;;;;;;;23.10;49.70;;;;;;5089466;28;19908;-91
2023/07/07 02:32:18;;;;;;;;;;;23.10;49.70;;;;;;5090229;28;19913;-92
2023/07/07 02:34:47;;;;;;;;;;;23.10;49.70;;;;;;5084425;28;20159;-92
2023/07/07 02:37:14;;;;;;;;;;;23.00;49.70;;;;;;5088587;28;19915;-92
2023/07/07 02:39:40;;;;;;;;;;;23.00;49.70;;;;;;5092595;28;20171;-92
2023/07/07 02:42:06;;;;;;;;;;;23.00;49.70;;;;;;5089276;28;19915;-92
2023/07/07 02:44:32;;;;;;;;;;;23.00;49.70;;;;;;5096941;28;20205;-93
2023/07/07 02:46:57;;;;;;;;;;;23.00;49.70;;;;;;5086959;28;19908;-92
2023/07/07 02:49:23;;;;;;;;;;;23.00;49.70;;;;;;5090093;28;19985;-92
2023/07/07 02:51:48;;;;;;;;;;;23.00;49.70;;;;;;5084919;28;19924;-92
2023/07/07 02:54:14;;;;;;;;;;;22.90;49.70;;;;;;5093029;28;19947;-92
2023/07/07 02:56:39;;;;;;;;;;;22.90;49.70;;;;;;5085544;28;19959;-92
2023/07/07 02:59:05;;;;;;;;;;;22.90;49.70;;;;;;5088342;28;19919;-92
2023/07/07 03:01:32;;;;;;;;;;;22.90;49.70;;;;;;5083635;28;19965;-92
2023/07/07 03:03:58;;;;;;;;;;;22.90;49.70;;;;;;5087211;28;19974;-92
2023/07/07 03:06:24;;;;;;;;;;;22.90;49.70;;;;;;5096465;28;19908;-92
2023/07/07 03:08:50;;;;;;;;;;;22.90;49.70;;;;;;5088468;28;19904;-92
2023/07/07 03:11:18;;;;;;;;;;;22.90;49.70;;;;;;5085604;28;19908;-92
2023/07/07 03:13:44;;;;;;;;;;;22.90;49.80;;;;;;5091563;28;19923;-92
2023/07/07 03:16:11;;;;;;;;;;;22.80;49.70;;;;;;5090358;28;19943;-93
2023/07/07 03:18:38;;;;;;;;;;;22.80;49.70;;;;;;5087704;28;20236;-92
2023/07/07 03:21:04;;;;;;;;;;;22.80;49.70;;;;;;5098450;28;19934;-92
2023/07/07 03:23:29;;;;;;;;;;;22.80;49.70;;;;;;5093872;28;19908;-92
2023/07/07 03:25:55;;;;;;;;;;;22.80;49.80;;;;;;5101466;28;19915;-92
2023/07/07 03:28:21;;;;;;;;;;;22.80;49.70;;;;;;5097374;28;19909;-92
2023/07/07 03:30:48;;;;;;;;;;;22.80;49.80;;;;;;5086388;28;19908;-92
2023/07/07 03:33:14;;;;;;;;;;;22.80;49.80;;;;;;5085243;28;19919;-92
2023/07/07 03:35:39;;;;;;;;;;;22.80;49.80;;;;;;5093759;28;19920;-92
2023/07/07 03:38:05;;;;;;;;;;;22.80;49.80;;;;;;5068949;28;19977;-92
2023/07/07 03:40:31;;;;;;;;;;;22.70;49.70;;;;;;5072463;28;20184;-92
2023/07/07 03:42:57;;;;;;;;;;;22.70;49.70;;;;;;5069710;28;19976;-91
2023/07/07 03:45:22;;;;;;;;;;;22.70;49.80;;;;;;5070414;28;19908;-92
2023/07/07 03:47:48;;;;;;;;;;;22.70;49.80;;;;;;5075002;28;19914;-92
2023/07/07 03:50:14;;;;;;;;;;;22.70;49.70;;;;;;5068310;28;19948;-93
2023/07/07 03:52:39;;;;;;;;;;;22.70;49.80;;;;;;5070453;28;19912;-92
2023/07/07 03:55:05;;;;;;;;;;;22.70;49.80;;;;;;5066385;28;19923;-92
2023/07/07 03:57:31;;;;;;;;;;;22.70;49.80;;;;;;5066640;28;19913;-93
2023/07/07 03:59:57;;;;;;;;;;;22.70;49.80;;;;;;5067496;28;19939;-93
2023/07/07 04:02:22;;;;;;;;;;;22.70;49.80;;;;;;5065835;28;20002;-93
2023/07/07 04:04:48;;;;;;;;;;;22.70;49.80;;;;;;5081701;28;19916;-93
2023/07/07 04:07:14;;;;;;;;;;;22.60;49.80;;;;;;5071271;28;19970;-92
2023/07/07 04:09:40;;;;;;;;;;;22.70;49.80;;;;;;5066138;28;19980;-93
2023/07/07 04:12:07;;;;;;;;;;;22.70;49.80;;;;;;5066962;28;20185;-92
2023/07/07 04:14:33;;;;;;;;;;;22.70;49.80;;;;;;5065797;28;20026;-92
2023/07/07 04:16:59;;;;;;;;;;;22.70;49.80;;;;;;5076714;28;20046;-92
2023/07/07 04:19:24;;;;;;;;;;;22.70;49.80;;;;;;5063227;28;20014;-93
2023/07/07 04:21:50;;;;;;;;;;;22.70;49.80;;;;;;5067255;28;19913;-93
2023/07/07 04:24:18;;;;;;;;;;;22.70;49.80;;;;;;5063601;28;20259;-92
2023/07/07 04:26:45;;;;;;;;;;;22.70;49.80;;;;;;5068179;28;19908;-93
2023/07/07 04:29:10;;;;;;;;;;;22.70;49.70;;;;;;5065612;28;19912;-92
2023/07/07 04:31:36;;;;;;;;;;;22.70;49.70;;;;;;5066697;28;19913;-92
2023/07/07 04:34:01;;;;;;;;;;;22.70;49.70;;;;;;5064311;28;19908;-92
2023/07/07 04:36:27;;;;;;;;;;;22.70;49.70;;;;;;5066544;28;19912;-92
2023/07/07 04:38:53;;;;;;;;;;;22.70;49.60;;;;;;5062542;28;19916;-92
2023/07/07 04:41:20;;;;;;;;;;;22.80;49.60;;;;;;5078995;28;19965;-92
2023/07/07 04:43:47;;;;;;;;;;;22.80;49.60;;;;;;5060635;28;19908;-92
2023/07/07 04:46:15;;;;;;;;;;;22.80;49.60;;;;;;5064079;28;19908;-92
2023/07/07 04:48:40;;;;;;;;;;;22.80;49.60;;;;;;5065568;28;19912;-92
2023/07/07 04:51:08;;;;;;;;;;;22.80;49.60;;;;;;5061116;28;19913;-92
2023/07/07 04:53:34;;;;;;;;;;;22.80;49.60;;;;;;5064405;28;19931;-92
2023/07/07 04:56:02;;;;;;;;;;;22.90;49.60;;;;;;5060551;28;19904;-92
2023/07/07 04:58:28;;;;;;;;;;;22.90;49.50;;;;;;5065165;28;19908;-92
2023/07/07 05:01:15;;;;;;;;;;;22.90;49.50;;;;;;5065859;28;20008;-93
2023/07/07 05:03:42;;;;;;;;;;;22.90;49.50;;;;;;5065844;28;19916;-93
2023/07/07 05:06:07;;;;;;;;;;;22.90;49.50;;;;;;5080213;28;19908;-93
2023/07/07 05:08:35;;;;;;;;;;;23.00;49.50;;;;;;5062289;28;20122;-93
2023/07/07 05:11:01;;;;;;;;;;;23.00;49.40;;;;;;5058873;28;20176;-92
2023/07/07 05:13:27;;;;;;;;;;;23.00;49.30;;;;;;5062881;28;19916;-93
2023/07/07 05:16:02;;;;;;;;;;;23.00;49.30;;;;;;5062306;28;19908;-92
2023/07/07 05:18:28;;;;;;;;;;;23.00;49.30;;;;;;5080981;28;19955;-93
2023/07/07 05:20:54;;;;;;;;;;;23.10;49.30;;;;;;5066900;28;19951;-92
2023/07/07 05:23:20;;;;;;;;;;;23.10;49.30;;;;;;5061684;28;20471;-93
2023/07/07 05:25:45;;;;;;;;;;;23.10;49.30;;;;;;5063605;28;19962;-93
2023/07/07 05:28:11;;;;;;;;;;;23.10;49.30;;;;;;5061171;28;20412;-92
2023/07/07 05:30:40;;;;;;;;;;;23.10;49.30;;;;;;5060873;28;19908;-92
2023/07/07 05:33:06;;;;;;;;;;;23.10;49.30;;;;;;5063132;28;19908;-92
2023/07/07 05:35:31;;;;;;;;;;;23.20;49.30;;;;;;5072480;28;20171;-92
2023/07/07 05:37:57;;;;;;;;;;;23.20;49.30;;;;;;5081129;28;19919;-92
2023/07/07 05:40:24;;;;;;;;;;;23.20;49.20;;;;;;5077752;28;19969;-93
2023/07/07 05:42:50;;;;;;;;;;;23.20;49.20;;;;;;5075026;28;19995;-92
2023/07/07 05:45:15;;;;;;;;;;;23.30;49.20;;;;;;5081144;28;20342;-92
2023/07/07 05:47:41;;;;;;;;;;;23.30;49.10;;;;;;5081628;28;19936;-92
2023/07/07 05:50:08;;;;;;;;;;;23.40;49.10;;;;;;5077185;28;19935;-92
2023/07/07 05:52:33;;;;;;;;;;;23.40;49.10;;;;;;5075980;28;20354;-92
2023/07/07 05:54:59;;;;;;;;;;;23.50;49.10;;;;;;5077560;28;19908;-92
2023/07/07 05:57:24;;;;;;;;;;;23.50;49.00;;;;;;5078502;28;20043;-92
2023/07/07 05:59:51;;;;;;;;;;;23.60;49.00;;;;;;5075942;28;20011;-92
2023/07/07 06:02:17;;;;;;;;;;;23.70;49.00;;;;;;5075154;28;19956;-93
2023/07/07 06:04:42;;;;;;;;;;;23.70;49.00;;;;;;5074681;28;19952;-92
2023/07/07 06:07:08;;;;;;;;;;;23.80;49.00;;;;;;5077397;28;19909;-92
2023/07/07 06:09:34;;;;;;;;;;;23.90;48.90;;;;;;5077235;28;20270;-92
2023/07/07 06:12:00;;;;;;;;;;;23.90;48.80;;;;;;5076486;28;19920;-92
2023/07/07 06:14:26;;;;;;;;;;;24.00;48.80;;;;;;5078742;28;20381;-92
2023/07/07 06:16:51;;;;;;;;;;;24.10;48.70;;;;;;5076564;28;19908;-92
2023/07/07 06:19:17;;;;;;;;;;;24.10;48.70;;;;;;5085729;28;19912;-92
2023/07/07 06:21:42;;;;;;;;;;;24.20;48.70;;;;;;5078235;28;19943;-90
2023/07/07 06:24:08;;;;;;;;;;;24.30;48.60;;;;;;5081270;28;19919;-90
2023/07/07 06:26:33;;;;;;;;;;;24.30;48.60;;;;;;5077721;28;19977;-90
2023/07/07 06:29:05;;;;;;;;;;;24.40;48.60;;;;;;5078074;28;19944;-91
2023/07/07 06:31:30;;;;;;;;;;;24.50;48.60;;;;;;5075591;28;20200;-90
2023/07/07 06:33:56;;;;;;;;;;;24.50;48.50;;;;;;5072789;28;19908;-90
2023/07/07 06:36:22;;;;;;;;;;;24.60;48.50;;;;;;5077567;28;19916;-90
2023/07/07 06:38:47;;;;;;;;;;;24.60;48.50;;;;;;5073876;28;20241;-90
2023/07/07 06:41:15;;;;;;;;;;;24.70;48.40;;;;;;5076889;28;20006;-90
2023/07/07 06:43:41;;;;;;;;;;;24.80;48.40;;;;;;5076229;28;19912;-90
2023/07/07 06:46:08;;;;;;;;;;;24.80;48.40;;;;;;5077806;28;20060;-90
2023/07/07 06:48:33;;;;;;;;;;;24.90;48.40;;;;;;5077237;28;19918;-90
2023/07/07 06:50:59;;;;;;;;;;;24.90;48.30;;;;;;5077740;28;19908;-90
2023/07/07 06:53:25;;;;;;;;;;;25.00;48.30;;;;;;5077376;28;19908;-91
2023/07/07 06:55:50;;;;;;;;;;;25.10;48.30;;;;;;5074746;28;20289;-91
2023/07/07 06:58:16;;;;;;;;;;;25.20;48.20;;;;;;5075442;28;19980;-90
2023/07/07 07:00:42;;;;;;;;;;;25.20;48.20;;;;;;5074474;28;20339;-90
2023/07/07 07:03:08;;;;;;;;;;;25.30;48.20;;;;;;5074910;28;19919;-91
2023/07/07 07:05:34;;;;;;;;;;;25.40;48.10;;;;;;5071754;28;19914;-91
2023/07/07 07:07:59;;;;;;;;;;;25.40;48.10;;;;;;5076402;28;19908;-91
2023/07/07 07:10:25;;;;;;;;;;;25.50;48.10;;;;;;5077315;28;19916;-90
2023/07/07 07:12:51;;;;;;;;;;;25.60;48.10;;;;;;5074067;28;20385;-91
2023/07/07 07:15:16;;;;;;;;;;;25.60;48.10;;;;;;5072923;28;19908;-90
2023/07/07 07:17:42;;;;;;;;;;;25.70;48.10;;;;;;5070910;28;19908;-90
2023/07/07 07:20:09;;;;;;;;;;;25.70;48.00;;;;;;5075409;28;19908;-89
2023/07/07 07:22:35;;;;;;;;;;;25.80;48.00;;;;;;5073906;28;19923;-90
2023/07/07 07:25:01;;;;;;;;;;;25.90;48.00;;;;;;5071213;28;19916;-90
2023/07/07 07:27:26;;;;;;;;;;;26.00;48.00;;;;;;5076594;28;20037;-90
2023/07/07 07:29:52;;;;;;;;;;;26.00;48.00;;;;;;5074730;28;20023;-90
2023/07/07 07:32:18;;;;;;;;;;;26.10;48.00;;;;;;5075524;28;20007;-90
2023/07/07 07:34:43;;;;;;;;;;;26.20;48.00;;;;;;5078633;28;19996;-90
2023/07/07 07:37:09;;;;;;;;;;;26.20;47.90;;;;;;5057788;28;19936;-90
2023/07/07 07:39:35;;;;;;;;;;;26.30;47.90;;;;;;5057428;28;20324;-90
2023/07/07 07:42:01;;;;;;;;;;;26.40;48.00;;;;;;5076844;28;20018;-90
2023/07/07 07:44:27;;;;;;;;;;;26.40;47.90;;;;;;5056170;28;19908;-90
2023/07/07 07:46:55;;;;;;;;;;;26.40;47.80;;;;;;5052724;28;19909;-90
2023/07/07 07:49:21;;;;;;;;;;;26.60;47.80;;;;;;5056611;28;19946;-90
2023/07/07 07:51:47;;;;;;;;;;;26.70;47.80;;;;;;5053283;28;19974;-90
2023/07/07 07:54:13;;;;;;;;;;;26.90;47.80;;;;;;5052409;28;19916;-89
2023/07/07 07:56:38;;;;;;;;;;;27.10;47.70;;;;;;5055539;28;19977;-90
2023/07/07 07:59:05;;;;;;;;;;;27.20;47.50;;;;;;5054445;28;19977;-90
2023/07/07 08:01:30;;;;;;;;;;;27.30;47.20;;;;;;5074022;28;20102;-90
2023/07/07 08:03:56;;;;;;;;;;;27.40;47.10;;;;;;5070879;28;19909;-90
2023/07/07 08:06:22;;;;;;;;;;;27.50;47.10;;;;;;5065196;28;19908;-90
2023/07/07 08:08:47;;;;;;;;;;;27.50;47.10;;;;;;5052942;28;19908;-90
2023/07/07 08:11:14;;;;;;;;;;;27.50;47.10;;;;;;5049955;28;19908;-90
2023/07/07 08:13:40;;;;;;;;;;;27.50;47.10;;;;;;5053703;28;19917;-90
2023/07/07 08:16:07;;;;;;;;;;;27.50;47.10;;;;;;5055487;28;19977;-90
2023/07/07 08:18:32;;;;;;;;;;;27.60;47.20;;;;;;5056031;28;19908;-90
2023/07/07 08:20:58;;;;;;;;;;;27.60;47.20;;;;;;5057851;28;19908;-89
2023/07/07 08:23:23;;;;;;;;;;;27.60;47.20;;;;;;5053706;28;20055;-90
2023/07/07 08:25:51;;;;;;;;;;;27.60;47.20;;;;;;5056677;28;20328;-90
2023/07/07 08:28:17;;;;;;;;;;;27.60;47.30;;;;;;5072059;28;20313;-90
2023/07/07 08:30:43;;;;;;;;;;;27.60;47.20;;;;;;5065502;28;19985;-90
2023/07/07 08:33:09;;;;;;;;;;;27.60;47.20;;;;;;5060857;28;20237;-90
2023/07/07 08:35:34;;;;;;;;;;;27.70;47.30;;;;;;5063666;28;20266;-90
2023/07/07 08:38:00;;;;;;;;;;;27.70;47.20;;;;;;5069843;28;19909;-90
2023/07/07 08:40:29;;;;;;;;;;;27.70;47.20;;;;;;5074123;28;19908;-90
2023/07/07 08:42:54;;;;;;;;;;;27.70;47.20;;;;;;5075255;28;19917;-90
2023/07/07 08:45:21;;;;;;;;;;;27.80;47.30;;;;;;5073639;28;20056;-90
2023/07/07 08:47:50;;;;;;;;;;;27.80;47.30;;;;;;5072764;28;19972;-90
2023/07/07 08:50:15;;;;;;;;;;;27.80;47.20;;;;;;5073606;28;19915;-90
2023/07/07 08:52:44;;;;;;;;;;;27.80;47.20;;;;;;5069814;28;19912;-90
2023/07/07 08:55:10;;;;;;;;;;;27.90;47.30;;;;;;5072083;28;19919;-91
2023/07/07 08:57:41;;;;;;;;;;;27.90;47.20;;;;;;5074601;28;20217;-90
2023/07/07 09:00:25;;;;;;;;;;;27.90;47.20;;;;;;5078893;28;19916;-90
2023/07/07 09:03:00;;;;;;;;;;;27.90;47.20;;;;;;5076199;28;19927;-89
2023/07/07 09:05:32;;;;;;;;;;;27.90;47.10;;;;;;5069924;28;19913;-89
2023/07/07 09:08:21;;;;;;;;;;;28.00;47.20;;;;;;5072128;28;19908;-89
2023/07/07 09:11:05;;;;;;;;;;;28.00;47.10;;;;;;5069728;28;19908;-90
2023/07/07 09:13:32;;;;;;;;;;;28.00;47.10;;;;;;5078646;28;20605;-91
2023/07/07 09:16:10;;;;;;;;;;;28.10;47.20;;;;;;5083146;28;19919;-90
2023/07/07 09:18:40;;;;;;;;;;;28.10;47.20;;;;;;5068061;28;19908;-90
2023/07/07 09:21:11;;;;;;;;;;;28.10;47.20;;;;;;5075160;28;20039;-90
2023/07/07 09:23:39;;;;;;;;;;;28.20;47.20;;;;;;5071167;28;19909;-90
2023/07/07 09:26:08;;;;;;;;;;;28.30;47.20;;;;;;5077053;28;20313;-90
2023/07/07 09:28:36;;;;;;;;;;;28.30;47.20;;;;;;5076321;28;20197;-90
2023/07/07 09:31:28;;;;;;;;;;;28.30;47.20;;;;;;5074178;28;19908;-89
2023/07/07 09:33:54;;;;;;;;;;;28.30;47.20;;;;;;5069072;28;19908;-89
2023/07/07 09:36:26;;;;;;;;;;;28.30;47.20;;;;;;5071618;28;19943;-89
2023/07/07 09:38:59;;;;;;;;;;;28.40;47.20;;;;;;5070235;28;19919;-89
2023/07/07 09:41:30;;;;;;;;;;;28.40;47.20;;;;;;5070551;28;19913;-89
2023/07/07 09:43:56;;;;;;;;;;;28.40;47.20;;;;;;5078745;28;20239;-89
2023/07/07 09:46:31;;;;;;;;;;;28.40;47.10;;;;;;5074028;28;20285;-90
2023/07/07 09:48:59;;;;;;;;;;;28.40;47.10;;;;;;5070439;28;19908;-89
2023/07/07 09:51:28;;;;;;;;;;;28.50;47.10;;;;;;5068845;28;19909;-90
2023/07/07 09:53:54;;;;;;;;;;;28.50;47.10;;;;;;5076573;28;19912;-89
2023/07/07 09:56:25;;;;;;;;;;;28.50;47.10;;;;;;5070447;28;19909;-89
2023/07/07 09:59:17;;;;;;;;;;;28.50;47.20;;;;;;5074559;28;19999;-89
2023/07/07 10:01:46;;;;;;;;;;;28.50;47.20;;;;;;5069936;28;19928;-90
2023/07/07 10:04:12;;;;;;;;;;;28.50;47.20;;;;;;5082458;28;19908;-90
2023/07/07 10:06:38;;;;;;;;;;;28.50;47.20;;;;;;5073393;28;19919;-90
2023/07/07 10:09:04;;;;;;;;;;;28.50;47.20;;;;;;5074817;28;19908;-90
2023/07/07 10:11:36;;;;;;;;;;;28.50;47.10;;;;;;5081155;28;19909;-89
2023/07/07 10:14:04;;;;;;;;;;;28.50;47.20;;;;;;5080357;28;19915;-89
2023/07/07 10:16:33;;;;;;;;;;;28.50;47.20;;;;;;5072253;28;20268;-89
2023/07/07 10:19:00;;;;;;;;;;;28.60;47.30;;;;;;5070453;28;19955;-89
2023/07/07 10:21:26;;;;;;;;;;;28.60;47.60;;;;;;5071416;28;20102;-90
2023/07/07 10:23:52;;;;;;;;;;;28.50;47.20;;;;;;5074615;28;19938;-90
2023/07/07 10:26:18;;;;;;;;;;;28.60;47.20;;;;;;5071873;28;20145;-89
2023/07/07 10:28:44;;;;;;;;;;;28.60;47.30;;;;;;5073038;28;20168;-89
2023/07/07 10:31:10;;;;;;;;;;;28.60;47.30;;;;;;5076517;28;19973;-89
2023/07/07 10:33:36;;;;;;;;;;;28.60;47.30;;;;;;5077118;28;20167;-90
2023/07/07 10:36:18;;;;;;;;;;;28.60;47.30;;;;;;5075137;28;20199;-90
2023/07/07 10:38:47;;;;;;;;;;;28.60;47.30;;;;;;5081193;28;19908;-89
2023/07/07 10:41:12;;;;;;;;;;;28.60;47.30;;;;;;5074201;28;20083;-89
2023/07/07 10:43:38;;;;;;;;;;;28.60;47.30;;;;;;5075439;28;19908;-89
2023/07/07 10:46:08;;;;;;;;;;;28.60;47.30;;;;;;5074719;28;19919;-89
2023/07/07 10:48:34;;;;;;;;;;;28.60;47.30;;;;;;5072624;28;20251;-89
2023/07/07 10:51:09;;;;;;;;;;;28.70;47.40;;;;;;5075019;28;19915;-89
2023/07/07 10:53:58;;;;;;;;;;;28.70;47.40;;;;;;5078454;28;19915;-89
2023/07/07 10:56:28;;;;;;;;;;;28.70;47.40;;;;;;5079676;28;19919;-89
2023/07/07 10:59:09;;;;;;;;;;;28.70;47.40;;;;;;5080456;28;19917;-89
2023/07/07 11:01:37;;;;;;;;;;;28.70;47.40;;;;;;5075663;28;20235;-90
2023/07/07 11:04:18;;;;;;;;;;;28.70;47.40;;;;;;5072130;28;19909;-90
2023/07/07 11:06:59;;;;;;;;;;;28.70;47.40;;;;;;5071847;28;19908;-90
2023/07/07 11:09:51;;;;;;;;;;;28.70;47.40;;;;;;5075618;28;20075;-90
2023/07/07 11:12:23;;;;;;;;;;;28.70;47.50;;;;;;5072277;28;19909;-89
2023/07/07 11:14:54;;;;;;;;;;;28.70;47.50;;;;;;5074020;28;19922;-88
2023/07/07 11:17:42;;;;;;;;;;;28.70;47.50;;;;;;5075905;28;20264;-88
2023/07/07 11:20:08;;;;;;;;;;;28.70;47.50;;;;;;5075156;28;19909;-88
2023/07/07 11:22:45;;;;;;;;;;;28.70;47.50;;;;;;5074193;28;19923;-89
2023/07/07 11:25:20;;;;;;;;;;;28.70;47.50;;;;;;5079977;28;19969;-89
2023/07/07 11:27:54;;;;;;;;;;;28.80;47.50;;;;;;5072406;28;19909;-89
2023/07/07 11:30:55;;;;;;;;;;;28.80;47.60;;;;;;5074652;28;20289;-89
2023/07/07 11:33:20;;;;;;;;;;;28.70;47.50;;;;;;4991638;28;19977;-89
2023/07/07 11:35:53;;;;;;;;;;;28.80;47.50;;;;;;5061870;28;19920;-89
2023/07/07 11:38:38;;;;;;;;;;;28.80;47.50;;;;;;5071782;28;19909;-89
2023/07/07 11:41:17;;;;;;;;;;;28.80;47.50;;;;;;5074710;28;20106;-89
2023/07/07 11:44:01;;;;;;;;;;;28.70;47.50;;;;;;5082886;28;20156;-89
2023/07/07 11:46:34;;;;;;;;;;;28.80;47.60;;;;;;5073699;28;19909;-90
2023/07/07 11:49:15;;;;;;;;;;;28.70;47.50;;;;;;5069911;28;19908;-89
2023/07/07 11:51:48;;;;;;;;;;;28.80;47.60;;;;;;5069999;28;20121;-89
2023/07/07 11:54:20;;;;;;;;;;;28.70;47.60;;;;;;5084570;28;19908;-89
2023/07/07 11:56:49;;;;;;;;;;;28.70;47.60;;;;;;5076636;28;19916;-89
2023/07/07 11:59:26;;;;;;;;;;;28.70;47.60;;;;;;5080686;28;19908;-89
2023/07/07 12:01:54;;;;;;;;;;;28.70;47.70;;;;;;5075039;28;19966;-89
2023/07/07 12:04:23;;;;;;;;;;;28.70;47.70;;;;;;5076889;28;19908;-89
2023/07/07 12:06:54;;;;;;;;;;;28.70;47.70;;;;;;5073626;28;20144;-89
2023/07/07 12:09:19;;;;;;;;;;;28.70;47.70;;;;;;5074515;28;20272;-89
2023/07/07 12:11:50;;;;;;;;;;;28.70;47.80;;;;;;5070219;28;20270;-88
2023/07/07 12:14:18;;;;;;;;;;;28.70;47.80;;;;;;5071182;28;19908;-89
2023/07/07 12:16:46;;;;;;;;;;;28.80;47.80;;;;;;5074781;28;20044;-89
2023/07/07 12:19:31;;;;;;;;;;;28.70;47.80;;;;;;5075569;28;20102;-89
2023/07/07 12:21:58;;;;;;;;;;;28.80;47.90;;;;;;5069492;28;20043;-89
2023/07/07 12:24:30;;;;;;;;;;;28.80;47.90;;;;;;5076179;28;20228;-88
2023/07/07 12:27:09;;;;;;;;;;;28.80;47.90;;;;;;5076598;28;19948;-89
2023/07/07 12:29:43;;;;;;;;;;;28.70;47.80;;;;;;5075435;28;20151;-89
2023/07/07 12:32:09;;;;;;;;;;;28.80;47.90;;;;;;5077305;28;20155;-89
2023/07/07 12:34:40;;;;;;;;;;;28.80;47.90;;;;;;5070977;28;19977;-89
2023/07/07 12:37:14;;;;;;;;;;;28.80;47.90;;;;;;5054890;28;20011;-88
2023/07/07 12:39:54;;;;;;;;;;;28.70;47.90;;;;;;5054749;28;19966;-89
2023/07/07 12:42:20;;;;;;;;;;;28.80;47.90;;;;;;5057647;28;19912;-89
2023/07/07 12:44:46;;;;;;;;;;;28.80;47.90;;;;;;5041797;28;20270;-89
2023/07/07 12:47:30;;;;;;;;;;;28.70;47.90;;;;;;5053427;28;19913;-89
2023/07/07 12:50:05;;;;;;;;;;;28.80;47.90;;;;;;5050163;28;19942;-89
2023/07/07 12:52:41;;;;;;;;;;;28.80;47.90;;;;;;5049457;28;20291;-89
2023/07/07 12:55:24;;;;;;;;;;;28.70;47.90;;;;;;5059950;28;20214;-89
2023/07/07 12:58:02;;;;;;;;;;;28.80;47.90;;;;;;5054989;28;19908;-89
2023/07/07 13:00:38;;;;;;;;;;;28.70;47.80;;;;;;5053152;28;20278;-88
2023/07/07 13:03:09;;;;;;;;;;;28.70;47.80;;;;;;5052787;28;19912;-89
2023/07/07 13:05:42;;;;;;;;;;;28.80;47.90;;;;;;5057325;28;19935;-89
2023/07/07 13:08:08;;;;;;;;;;;28.70;47.80;;;;;;5077862;28;19938;-89
2023/07/07 13:10:54;;;;;;;;;;;28.70;47.80;;;;;;5059206;28;20199;-89
2023/07/07 13:13:24;;;;;;;;;;;28.70;47.80;;;;;;5058025;28;20023;-88
2023/07/07 13:16:11;;;;;;;;;;;28.80;47.90;;;;;;5113067;27;19916;-3
2023/07/07 13:18:37;;;;;;;;;;;28.70;47.90;;;;;;5104798;28;20365;-3
2023/07/07 13:21:03;;;;;;;;;;;28.70;47.90;;;;;;5113933;28;20018;-3
2023/07/07 13:23:34;;;;;;;;;;;28.70;47.90;;;;;;5105190;28;19965;-3
2023/07/07 13:26:00;;;;;;;;;;;28.70;47.90;;;;;;5104605;28;19936;-3
2023/07/07 13:28:26;;;;;;;;;;;28.70;47.90;;;;;;5110724;28;20462;-3
2023/07/07 13:30:53;;;;;;;;;;;28.80;47.90;;;;;;5094738;28;19997;-3
2023/07/07 13:33:20;;;;;;;;;;;28.70;47.90;;;;;;5102515;28;20251;-3
2023/07/07 13:35:50;;;;;;;;;;;28.70;47.90;;;;;;5093580;28;19920;-3
2023/07/07 13:38:17;;;;;;;;;;;28.70;47.90;;;;;;5098704;28;20300;-3
2023/07/07 13:40:45;;;;;;;;;;;28.80;47.90;;;;;;5107551;28;19991;-2
2023/07/07 13:43:20;;;;;;;;;;;28.70;47.90;;;;;;5075271;28;19913;-3
2023/07/07 13:45:45;;;;;;;;;;;28.80;47.90;;;;;;5072185;28;19919;-3
2023/07/07 13:48:17;;;;;;;;;;;28.70;47.90;;;;;;5086812;28;19908;-3
2023/07/07 13:50:43;;;;;;;;;;;28.80;47.90;;;;;;5094445;28;20158;-3
2023/07/07 13:53:09;;;;;;;;;;;28.80;48.00;;;;;;5094515;28;19933;-3
2023/07/07 13:55:36;;;;;;;;;;;28.80;48.00;;;;;;5074563;28;19916;-3
2023/07/07 13:58:03;;;;;;;;;;;28.80;48.00;;;;;;5075687;28;19922;-3
2023/07/07 14:00:44;;;;;;;;;;;28.80;48.00;;;;;;5109964;28;19908;-3
2023/07/07 14:03:16;;;;;;;;;;;28.80;48.00;;;;;;5074287;28;19908;-3
2023/07/07 14:05:42;;;;;;;;;;;28.80;48.00;;;;;;5085229;28;19935;-3
2023/07/07 14:08:13;;;;;;;;;;;28.80;48.00;;;;;;5094838;28;19910;-3
2023/07/07 14:10:41;;;;;;;;;;;28.80;48.00;;;;;;5099656;28;20003;-4
2023/07/07 14:13:15;;;;;;;;;;;28.80;48.00;;;;;;5093207;28;19995;-3
2023/07/07 14:16:01;;;;;;;;;;;28.80;48.00;;;;;;5090274;28;20408;-3
2023/07/07 14:18:30;;;;;;;;;;;28.80;48.00;;;;;;5051271;28;19913;-3
2023/07/07 14:20:56;;;;;;;;;;;28.80;48.10;;;;;;5072067;28;19916;-3
2023/07/07 14:23:22;;;;;;;;;;;28.80;48.00;;;;;;5066701;28;20044;-3
2023/07/07 14:25:48;;;;;;;;;;;28.80;48.10;;;;;;5054060;28;20189;-3
2023/07/07 14:28:18;;;;;;;;;;;28.80;48.10;;;;;;5070606;28;19937;-3